Temp     Hi    Low   Out    Dew  Wind  Wind   Wind    Hi    Hi   Wind   Heat    THW   THSW                Rain  Solar   Solar Hi Solar   UV    UV    Hi     Heat    Cool    In     In    In     In           Wind  Wind    ISS   Arc.
  Date    Time     Out   Temp   Temp   Hum    Pt. Speed   Dir    Run Speed   Dir  Chill  Index  Index  Index   Bar    Rain  Rate   Rad.  Energy    Rad.  Index  Dose   UV     D-D     D-D    Temp   Hum    Dew   Heat     ET   Samp   Tx   Recept  Int.
---------------------------------------------------------------------------------------------------------------------------------------------------------------------------------------------------------------------------------------------------------
 8/17/17 12:30a   60.7   61.3   60.7    73   52.0   0.0   WNW   0.00   5.0   WNW   60.7   60.3   60.3   56.2  30.167  0.00  0.00     0     0.00      0     0.0  0.00   0.0   0.090   0.000   77.7    41   52.1   76.9   0.000   682    2    100.0   30 
 8/17/17  1:00a   60.5   60.9   60.2    74   52.2   0.0   ---   0.00   0.0   ---   60.5   60.1   60.1   56.0  30.162  0.00  0.00     0     0.00      0     0.0  0.00   0.0   0.094   0.000   77.3    41   51.8   76.5   0.001   672    2    100.0   30 
 8/17/17  1:30a   60.3   60.5   60.0    74   52.0   0.0   WNW   0.00   1.0   WNW   60.3   59.9   59.9   55.8  30.161  0.00  0.00     0     0.00      0     0.0  0.00   0.0   0.098   0.000   77.2    41   51.7   76.4   0.000   686    2    100.0   30 
 8/17/17  2:00a   59.4   60.3   59.4    76   51.8   0.0   ---   0.00   0.0   ---   59.4   59.0   59.0   54.9  30.159  0.00  0.00     0     0.00      0     0.0  0.00   0.0   0.117   0.000   76.8    42   52.0   76.1   0.001   681    2    100.0   30 
 8/17/17  2:30a   58.0   59.7   58.0    77   50.8   0.0   ---   0.00   0.0   ---   58.0   57.6   57.6   53.4  30.158  0.00  0.00     0     0.00      0     0.0  0.00   0.0   0.146   0.000   76.6    42   51.8   75.9   0.000   667    2    100.0   30 
 8/17/17  3:00a   57.7   58.5   57.5    79   51.2   0.0   WNW   0.00   3.0   WNW   57.7   57.4   57.4   53.3  30.158  0.00  0.00     0     0.00      0     0.0  0.00   0.0   0.152   0.000   76.4    42   51.6   75.7   0.001   681    2    100.0   30 
 8/17/17  3:30a   56.9   58.0   56.7    79   50.5   0.0   ---   0.00   0.0   ---   56.9   56.6   56.6   52.4  30.159  0.00  0.00     0     0.00      0     0.0  0.00   0.0   0.169   0.000   76.1    42   51.3   75.4   0.000   679    2    100.0   30 
 8/17/17  4:00a   57.6   57.8   56.8    78   50.8   0.0   WNW   0.00   3.0   WNW   57.6   57.3   57.3   53.1  30.158  0.00  0.00     0     0.00      0     0.0  0.00   0.0   0.154   0.000   75.9    42   51.2   75.2   0.001   674    2    100.0   30 
 8/17/17  4:30a   56.4   57.6   56.0    78   49.6   0.0   ---   0.00   0.0   ---   56.4   56.0   56.0   51.8  30.158  0.00  0.00     0     0.00      0     0.0  0.00   0.0   0.179   0.000   75.7    42   51.0   75.0   0.000   685    2    100.0   30 
 8/17/17  5:00a   55.9   56.8   55.5    82   50.5   0.0   ---   0.00   0.0   ---   55.9   55.7   55.7   51.5  30.159  0.00  0.00     0     0.00      0     0.0  0.00   0.0   0.190   0.000   75.6    42   50.9   74.9   0.001   676    2    100.0   30 
 8/17/17  5:30a   55.7   56.2   55.3    82   50.3   0.0   ---   0.00   0.0   ---   55.7   55.5   55.5   51.3  30.163  0.00  0.00     0     0.00      0     0.0  0.00   0.0   0.194   0.000   75.2    42   50.5   74.6   0.000   677    2    100.0   30 
 8/17/17  6:00a   55.8   56.1   55.1    80   49.7   0.0   WNW   0.00   1.0   WNW   55.8   55.5   55.5   51.3  30.174  0.00  0.00     0     0.00      0     0.0  0.00   0.0   0.192   0.000   75.0    42   50.3   74.4   0.001   684    2    100.0   30 
 8/17/17  6:30a   54.4   55.8   54.2    84   49.7   0.0   ---   0.00   0.0   ---   54.4   54.3   54.3   50.1  30.177  0.00  0.00     2     0.09      7     0.0  0.00   0.0   0.221   0.000   74.9    42   50.3   74.3   0.000   671    2    100.0   30 
 8/17/17  7:00a   55.3   55.4   54.2    82   49.9   0.0   ---   0.00   0.0   ---   55.3   55.1   55.1   53.1  30.186  0.00  0.00    15     0.65     21     0.0  0.00   0.0   0.202   0.000   74.7    42   50.1   74.0   0.000   682    2    100.0   30 
 8/17/17  7:30a   57.0   57.0   55.2    80   50.9   0.0   ---   0.00   0.0   ---   57.0   56.7   56.7   55.2  30.192  0.00  0.00    27     1.16     33     0.0  0.00   0.0   0.167   0.000   74.7    42   50.1   74.0   0.000   686    2    100.0   30 
 8/17/17  8:00a   61.3   61.3   57.0    75   53.3   0.0   ---   0.00   0.0   ---   61.3   61.0   61.0   64.0  30.194  0.00  0.00   153     6.58    237     0.0  0.00   0.0   0.077   0.000   74.7    42   50.1   74.0   0.002   674    2    100.0   30 
 8/17/17  8:30a   67.4   67.4   61.4    65   55.2   0.0   WNW   0.00   2.0   WNW   67.4   67.5   67.5   73.8  30.195  0.00  0.00   287    12.34    336     0.0  0.00   0.0   0.000   0.050   74.9    43   50.9   74.4   0.000   683    2    100.0   30 
 8/17/17  9:00a   69.4   69.5   66.8    60   54.9   0.0   ---   0.00   0.0   ---   69.4   68.7   68.7   76.4  30.196  0.00  0.00   388    16.69    436     0.9  0.14   1.3   0.000   0.092   75.0    44   51.6   74.6   0.008   684    2    100.0   30 
 8/17/17  9:30a   71.3   71.3   69.4    57   55.3   2.0   WNW   1.00   9.0    NW   71.3   70.6   70.6   79.3  30.196  0.00  0.00   486    20.90    533     1.8  0.29   2.6   0.000   0.131   75.4    45   52.6   75.1   0.000   672    2    100.0   30 
 8/17/17 10:00a   73.3   73.3   71.3    53   55.1   5.0   NNW   2.50  13.0   NNW   73.3   73.2   73.2   82.6  30.195  0.00  0.00   579    24.90    622     3.2  0.51   3.8   0.000   0.173   75.7    45   52.8   75.3   0.014   686    2    100.0   30 
 8/17/17 10:30a   74.5   74.5   73.3    52   55.7   6.0   NNW   3.00  12.0   NNW   74.5   74.6   74.6   84.5  30.193  0.00  0.00   662    28.47    700     4.5  0.72   5.1   0.000   0.198   76.1    44   52.6   75.6   0.000   679    2    100.0   30 
 8/17/17 11:00a   76.2   76.2   74.5    48   55.1   6.0   NNW   3.00  12.0   NNW   76.2   76.0   76.0   86.3  30.189  0.00  0.00   737    31.70    770     5.8  0.93   6.4   0.000   0.233   76.6    44   53.1   76.1   0.020   676    2    100.0   30 
 8/17/17 11:30a   78.2   78.2   76.1    46   55.7   6.0   NNW   3.00  12.0   NNW   78.2   77.9   77.9   88.4  30.184  0.00  0.00   798    34.32    824     6.9  1.11   7.4   0.000   0.275   77.0    44   53.4   76.4   0.000   683    2    100.0   30 
 8/17/17 12:00p   78.7   78.8   78.0    43   54.3   8.0   NNW   4.00  15.0   NNW   78.3   78.2   77.8   87.7  30.176  0.00  0.00   844    36.30    865     7.8  1.25   8.3   0.000   0.285   77.9    43   53.6   77.3   0.024   674    2    100.0   30 
 8/17/17 12:30p   79.2   79.5   78.5    44   55.4  10.0   NNW   5.00  16.0   NNW   77.5   78.8   77.1   86.3  30.168  0.00  0.00   878    37.76    889     8.6  1.38   8.8   0.000   0.296   78.6    43   54.2   78.1   0.000   682    2    100.0   30 
 8/17/17  1:00p   79.8   80.2   78.8    43   55.3  11.0   NNW   5.50  19.0   NNW   77.9   79.2   77.3   86.0  30.163  0.00  0.00   899    38.66    907     9.0  1.45   9.2   0.000   0.308   79.0    42   53.9   78.4   0.028   685    2    100.0   30 
 8/17/17  1:30p   80.6   80.7   79.3    42   55.4  10.0   NNW   5.00  19.0   NNW   79.1   79.8   78.3   87.2  30.148  0.00  0.00   905    38.92    909     9.0  1.45   9.1   0.000   0.325   79.5    41   53.7   78.7   0.000   674    2    100.0   30 
 8/17/17  2:00p   81.0   82.0   80.5    43   56.4  10.0   NNW   5.00  18.0   NNW   79.5   80.4   78.9   87.6  30.139  0.00  0.00   894    38.45    904     8.7  1.40   8.9   0.000   0.333   79.9    41   54.1   79.0   0.029   686    2    100.0   30 
 8/17/17  2:30p   81.5   82.5   80.7    43   56.8   9.0   NNW   4.50  19.0   NNW   80.6   81.0   80.1   89.0  30.133  0.00  0.00   863    37.11    881     7.9  1.27   8.3   0.000   0.344   80.1    41   54.3   79.2   0.000   678    2    100.0   30 
 8/17/17  3:00p   81.5   82.0   80.6    43   56.8  11.0   NNW   5.50  20.0   NNW   79.8   81.0   79.3   87.5  30.128  0.00  0.00   813    34.96    840     6.7  1.08   7.3   0.000   0.344   80.6    42   55.4   79.8   0.027   680    2    100.0   30 
 8/17/17  3:30p   81.1   81.9   80.3    43   56.5  12.0   NNW   6.00  22.0   NNW   79.0   80.5   78.4   86.4  30.124  0.00  0.00   748    32.17    786     5.5  0.88   6.1   0.000   0.335   81.2    41   55.3   80.4   0.000   685    2    100.0   30 
 8/17/17  4:00p   81.5   81.6   80.4    42   56.2  12.0   NNW   6.00  25.0   NNW   79.5   80.9   78.9   86.7  30.124  0.00  0.00   678    29.16    714     4.2  0.67   4.8   0.000   0.344   81.4    41   55.4   80.6   0.025   671    2    100.0   30 
 8/17/17  4:30p   81.0   81.5   80.7    43   56.4  11.0   NNW   5.50  19.0   NNW   79.2   80.4   78.6   86.2  30.121  0.00  0.00   599    25.76    642     3.0  0.48   3.6   0.000   0.333   81.6    41   55.6   80.9   0.000   684    2    100.0   30 
 8/17/17  5:00p   81.2   81.4   80.7    43   56.6  11.0   NNW   5.50  20.0   NNW   79.4   80.6   78.8   86.4  30.122  0.00  0.00   511    21.98    554     1.9  0.31   2.4   0.000   0.337   81.8    41   55.8   81.2   0.021   678    2    100.0   30 
 8/17/17  5:30p   80.1   81.2   80.1    44   56.2  10.0   NNW   5.00  18.0   NNW   78.5   79.6   78.0   85.5  30.118  0.00  0.00   417    17.93    459     1.0  0.16   1.4   0.000   0.315   81.8    41   55.8   81.2   0.000   677    2    100.0   30 
 8/17/17  6:00p   79.5   80.6   79.4    45   56.3   9.0   NNW   4.50  17.0   NNW   78.4   79.1   78.0   84.8  30.120  0.00  0.00   316    13.59    367     0.1  0.02   0.6   0.000   0.302   81.8    41   55.8   81.2   0.015   683    2    100.0   30 
 8/17/17  6:30p   78.8   79.5   78.8    47   56.9   6.0   NNW   3.00  14.0     N   78.8   78.7   78.7   83.8  30.119  0.00  0.00   213     9.16    264     0.0  0.00   0.0   0.000   0.288   81.8    41   55.8   81.2   0.000   676    2    100.0   30 
 8/17/17  7:00p   76.9   78.8   76.9    49   56.3   5.0   NNW   2.50  13.0   NNW   76.9   76.7   76.7   74.9  30.128  0.00  0.00    95     4.09    155     0.0  0.00   0.0   0.000   0.248   81.6    41   55.6   80.9   0.007   680    2    100.0   30 
 8/17/17  7:30p   75.2   76.8   75.2    52   56.4   3.0   NNW   1.50   9.0   NNW   75.2   75.4   75.4   72.0  30.137  0.00  0.00    19     0.82     30     0.0  0.00   0.0   0.000   0.212   81.2    42   55.9   80.5   0.000   683    2    100.0   30 
 8/17/17  8:00p   73.9   75.2   73.8    54   56.2   0.0   NNW   0.00   3.0   NNW   73.9   74.0   74.0   70.2  30.149  0.00  0.00     1     0.04      7     0.0  0.00   0.0   0.000   0.185   81.2    42   55.9   80.5   0.001   671    2    100.0   30 
 8/17/17  8:30p   72.8   74.0   72.8    55   55.7   0.0   ---   0.00   0.0   ---   72.8   72.7   72.7   68.8  30.158  0.00  0.00     0     0.00      0     0.0  0.00   0.0   0.000   0.163   81.4    42   56.1   80.8   0.000   685    2    100.0   30 
 8/17/17  9:00p   71.5   72.9   71.5    58   55.9   0.0   NNW   0.00   4.0   NNW   71.5   71.0   71.0   67.1  30.166  0.00  0.00     0     0.00      0     0.0  0.00   0.0   0.000   0.135   81.4    42   56.1   80.8   0.002   680    2    100.0   30 
 8/17/17  9:30p   70.6   71.7   70.6    59   55.6   0.0   NNW   0.00   2.0   NNW   70.6   69.9   69.9   66.0  30.174  0.00  0.00     0     0.00      0     0.0  0.00   0.0   0.000   0.117   81.2    42   55.9   80.5   0.000   673    2    100.0   30 
 8/17/17 10:00p   70.1   70.7   70.0    60   55.6   0.0   ---   0.00   0.0   ---   70.1   69.3   69.3   65.4  30.177  0.00  0.00     0     0.00      0     0.0  0.00   0.0   0.000   0.106   81.2    42   55.9   80.5   0.002   686    2    100.0   30 
 8/17/17 10:30p   68.7   70.1   68.7    63   55.6   0.0   NNW   0.00   1.0   NNW   68.7   68.5   68.5   64.6  30.177  0.00  0.00     0     0.00      0     0.0  0.00   0.0   0.000   0.077   81.2    42   55.9   80.5   0.000   676    2    100.0   30 
 8/17/17 11:00p   67.1   68.7   67.0    65   54.9   0.0   NNW   0.00   4.0   NNW   67.1   67.1   67.1   63.1  30.177  0.00  0.00     0     0.00      0     0.0  0.00   0.0   0.000   0.044   80.8    42   55.6   80.0   0.001   679    2    100.0   30 
 8/17/17 11:30p   66.5   67.1   66.5    66   54.8   1.0   NNW   0.50   5.0   NNW   66.5   66.5   66.5   62.5  30.182  0.00  0.00     0     0.00      0     0.0  0.00   0.0   0.000   0.031   80.3    38   52.4   79.1   0.000   683    2    100.0   30 
 8/18/17 12:00a   65.4   66.5   65.4    69   55.0   0.0    NW   0.00   4.0    NW   65.4   65.4   65.4   61.4  30.181  0.00  0.00     0     0.00      0     0.0  0.00   0.0   0.000   0.008   79.5    41   53.7   78.7   0.001   672    2    100.0   30 
 8/18/17 12:30a   65.1   65.4   65.0    69   54.7   0.0    NW   0.00   2.0    NW   65.1   65.1   65.1   61.1  30.181  0.00  0.00     0     0.00      0     0.0  0.00   0.0   0.000   0.002   79.3    42   54.2   78.7   0.000   680    2    100.0   30 
 8/18/17  1:00a   63.4   65.1   63.2    73   54.6   0.0   ---   0.00   0.0   ---   63.4   63.3   63.3   59.3  30.178  0.00  0.00     0     0.00      0     0.0  0.00   0.0   0.033   0.000   79.2    42   54.1   78.6   0.001   681    2    100.0   30 
 8/18/17  1:30a   63.2   63.7   62.7    71   53.6   0.0    NW   0.00   1.0    NW   63.2   63.0   63.0   59.0  30.170  0.00  0.00     0     0.00      0     0.0  0.00   0.0   0.037   0.000   79.0    42   53.9   78.4   0.000   670    2    100.0   30 
 8/18/17  2:00a   63.3   63.6   62.3    73   54.5   0.0   ---   0.00   0.0   ---   63.3   63.2   63.2   59.2  30.166  0.00  0.00     0     0.00      0     0.0  0.00   0.0   0.035   0.000   78.8    42   53.8   78.2   0.001   685    2    100.0   30 
 8/18/17  2:30a   62.8   63.8   62.8    71   53.3   0.0    NW   0.00   1.0    NW   62.8   62.5   62.5   58.5  30.156  0.00  0.00     0     0.00      0     0.0  0.00   0.0   0.046   0.000   78.4    42   53.4   77.7   0.000   680    2    100.0   30 
 8/18/17  3:00a   61.4   62.8   61.3    74   53.0   0.0   ---   0.00   0.0   ---   61.4   61.1   61.1   57.1  30.150  0.00  0.00     0     0.00      0     0.0  0.00   0.0   0.075   0.000   78.2    42   53.2   77.5   0.001   591    2     88.6   30 
 8/18/17  3:30a   60.7   61.3   60.5    77   53.4   0.0   ---   0.00   0.0   ---   60.7   60.5   60.5   56.5  30.149  0.00  0.00     0     0.00      0     0.0  0.00   0.0   0.090   0.000   77.9    43   53.6   77.3   0.000   685    2    100.0   30 
 8/18/17  4:00a   60.1   60.7   59.9    78   53.2   0.0   ---   0.00   0.0   ---   60.1   59.9   59.9   55.9  30.146  0.00  0.00     0     0.00      0     0.0  0.00   0.0   0.102   0.000   77.7    43   53.4   77.1   0.001   679    2    100.0   30 
 8/18/17  4:30a   59.4   60.8   59.2    79   52.9   0.0   ---   0.00   0.0   ---   59.4   59.2   59.2   55.1  30.144  0.00  0.00     0     0.00      0     0.0  0.00   0.0   0.117   0.000   77.3    43   53.1   76.7   0.000   676    2    100.0   30 
 8/18/17  5:00a   58.6   59.6   58.3    82   53.1   0.0   ---   0.00   0.0   ---   58.6   58.5   58.5   54.5  30.144  0.00  0.00     0     0.00      0     0.0  0.00   0.0   0.133   0.000   77.2    43   53.0   76.6   0.001   619    2     92.8   30 
 8/18/17  5:30a   58.4   58.9   58.1    82   52.9   0.0   ---   0.00   0.0   ---   58.4   58.3   58.3   54.2  30.148  0.00  0.00     0     0.00      0     0.0  0.00   0.0   0.137   0.000   76.8    43   52.6   76.2   0.000   672    2    100.0   30 
 8/18/17  6:00a   59.0   59.5   58.4    82   53.5   0.0   ---   0.00   0.0   ---   59.0   58.9   58.9   54.9  30.151  0.00  0.00     0     0.00      0     0.0  0.00   0.0   0.125   0.000   76.4    44   52.9   75.9   0.001   681    2    100.0   30 
 8/18/17  6:30a   58.1   59.0   57.6    83   53.0   0.0   ---   0.00   0.0   ---   58.1   58.0   58.0   54.0  30.159  0.00  0.00     2     0.09      7     0.0  0.00   0.0   0.144   0.000   76.3    44   52.8   75.8   0.000   685    2    100.0   30 
 8/18/17  7:00a   58.0   58.7   57.8    83   52.9   0.0   ---   0.00   0.0   ---   58.0   57.9   57.9   56.0  30.168  0.00  0.00    15     0.65     21     0.0  0.00   0.0   0.146   0.000   76.1    44   52.6   75.6   0.000   668    2    100.0   30 
 8/18/17  7:30a   60.3   60.3   58.1    78   53.4   0.0   ---   0.00   0.0   ---   60.3   60.1   60.1   58.7  30.172  0.00  0.00    26     1.12     32     0.0  0.00   0.0   0.098   0.000   75.9    44   52.4   75.4   0.000   685    2    100.0   30 
 8/18/17  8:00a   64.9   64.9   60.3    71   55.3   0.0   ---   0.00   0.0   ---   64.9   64.9   64.9   67.8  30.175  0.00  0.00   147     6.32    234     0.0  0.00   0.0   0.002   0.000   75.9    45   53.0   75.5   0.002   683    2    100.0   30 
 8/18/17  8:30a   69.7   69.7   65.0    65   57.4   0.0   ---   0.00   0.0   ---   69.7   69.5   69.5   75.8  30.170  0.00  0.00   284    12.21    332     0.0  0.00   0.0   0.000   0.098   76.1    46   53.8   75.8   0.000   671    2    100.0   30 
 8/18/17  9:00a   73.1   73.1   69.8    55   56.0   0.0    NW   0.00   6.0    NW   73.1   73.1   73.1   80.8  30.161  0.00  0.00   386    16.60    434     0.8  0.13   1.4   0.000   0.169   76.3    46   54.0   75.9   0.008   686    2    100.0   30 
 8/18/17  9:30a   75.5   75.5   73.1    51   56.1   2.0    NW   1.00   8.0    NW   75.5   75.6   75.6   84.4  30.157  0.00  0.00   484    20.81    533     1.7  0.27   2.5   0.000   0.219   76.8    46   54.5   76.4   0.000   678    2    100.0   30 
 8/18/17 10:00a   77.2   77.2   75.5    49   56.6   3.0    NW   1.50   9.0    NW   77.2   77.0   77.0   86.5  30.160  0.00  0.00   576    24.77    617     3.0  0.48   3.6   0.000   0.254   77.3    45   54.3   76.8   0.014   676    2    100.0   30 
 8/18/17 10:30a   78.7   79.3   77.3    46   56.2   2.0   NNW   1.00   7.0   NNW   78.7   78.5   78.5   88.5  30.158  0.00  0.00   661    28.43    696     4.2  0.67   4.8   0.000   0.285   78.4    44   54.7   77.9   0.000   684    2    100.0   30 
 8/18/17 11:00a   81.2   81.3   78.7    41   55.3   2.0   NNW   1.00   8.0   NNW   81.2   80.4   80.4   90.7  30.153  0.00  0.00   738    31.74    772     5.5  0.88   6.1   0.000   0.337   79.0    44   55.2   78.6   0.019   672    2    100.0   30 
 8/18/17 11:30a   83.3   83.7   81.2    39   55.8   3.0     N   1.50  13.0     N   83.3   83.0   83.0   93.5  30.138  0.00  0.00   803    34.53    819     6.6  1.06   7.1   0.000   0.381   79.9    43   55.4   79.3   0.000   682    2    100.0   30 
 8/18/17 12:00p   85.1   86.0   83.2    38   56.6   5.0   NNW   2.50  16.0   NNW   85.1   84.8   84.8   95.4  30.129  0.00  0.00   843    36.25    865     7.5  1.21   8.0   0.000   0.419   80.8    42   55.6   80.0   0.024   679    2    100.0   30 
 8/18/17 12:30p   86.1   86.1   84.0    33   53.6   5.0   NNW   2.50  13.0   NNW   86.1   85.0   85.0   95.4  30.126  0.00  0.00   883    37.97    904     8.4  1.35   8.8   0.000   0.440   82.0    41   56.0   81.4   0.000   678    2    100.0   30 
 8/18/17  1:00p   91.4   91.8   86.1    22   47.2   9.0   ESE   4.50  25.0    SE   91.4   88.4   88.4   97.2  30.131  0.00  0.00   919    39.52    925     9.2  1.48   9.3   0.000   0.550   82.3    36   52.7   81.2   0.030   685    2    100.0   30 
 8/18/17  1:30p   91.4   92.0   90.8    20   44.7  10.0     E   5.00  23.0     E   91.4   88.0   88.0   96.2  30.123  0.00  0.00   919    39.52    928     9.2  1.48   9.4   0.000   0.550   82.9    36   53.2   81.9   0.000   674    2    100.0   30 
 8/18/17  2:00p   92.5   92.9   91.1    18   42.8   8.0     E   4.00  18.0     E   92.5   89.0   89.0   97.3  30.122  0.00  0.00   911    39.18    921     8.9  1.43   9.2   0.000   0.573   82.1    35   51.7   80.8   0.033   678    2    100.0   30 
 8/18/17  2:30p   92.8   92.8   87.4    18   43.1   3.0     E   1.50  13.0     E   92.8   89.3   89.3   97.9  30.110  0.00  0.00   880    37.84    902     8.0  1.29   8.6   0.000   0.579   81.8    36   52.2   80.6   0.000   685    2    100.0   30 
 8/18/17  3:00p   90.9   92.9   88.6    28   53.3   4.0     E   2.00  15.0   ENE   90.9   89.4   89.4   98.3  30.100  0.00  0.00   839    36.08    865     7.0  1.13   7.6   0.000   0.540   82.3    36   52.7   81.2   0.027   673    2    100.0   30 
 8/18/17  3:30p   88.3   91.2   87.5    31   53.8   6.0   NNW   3.00  15.0   NNW   88.3   86.3   86.3   95.3  30.083  0.00  0.00   773    33.24    805     5.7  0.92   6.2   0.000   0.485   82.9    37   54.0   82.0   0.000   682    2    100.0   30 
 8/18/17  4:00p   87.2   88.7   87.0    33   54.6   8.0   NNW   4.00  18.0   NNW   87.1   85.9   85.8   94.6  30.079  0.00  0.00   703    30.23    737     4.4  0.71   5.0   0.000   0.462   83.5    38   55.2   83.1   0.025   682    2    100.0   30 
 8/18/17  4:30p   86.4   87.6   85.7    37   57.0   9.0   NNW   4.50  18.0   NNW   85.9   86.1   85.6   94.2  30.067  0.00  0.00   614    26.41    664     3.1  0.50   3.7   0.000   0.446   84.1    38   55.7   84.0   0.000   676    2    100.0   30 
 8/18/17  5:00p   84.6   86.3   84.4    39   56.9  11.0   NNW   5.50  21.0   NNW   83.4   84.6   83.4   91.2  30.062  0.00  0.00   520    22.36    563     1.9  0.31   2.4   0.000   0.408   84.5    38   56.1   84.3   0.022   685    2    100.0   30 
 8/18/17  5:30p   83.8   85.6   83.7    40   56.9   9.0   NNW   4.50  20.0   NNW   83.1   84.0   83.3   91.3  30.064  0.00  0.00   424    18.23    471     1.0  0.16   1.4   0.000   0.392   84.7    38   56.3   84.5   0.000   671    2    100.0   30 
 8/18/17  6:00p   82.9   84.0   82.9    42   57.5   7.0   NNW   3.50  15.0   NNW   82.9   82.9   82.9   90.5  30.060  0.00  0.00   323    13.89    378     0.1  0.02   0.6   0.000   0.373   84.9    39   57.2   84.8   0.015   682    2    100.0   30 
 8/18/17  6:30p   81.4   82.9   81.4    44   57.4   9.0   NNW   4.50  16.0   NNW   80.4   81.0   80.0   84.6  30.063  0.00  0.00   211     9.07    265     0.0  0.00   0.0   0.000   0.342   84.7    39   57.0   84.7   0.000   683    2    100.0   30 
 8/18/17  7:00p   79.8   81.4   79.8    45   56.6   6.0   NNW   3.00  15.0    NW   79.8   79.4   79.4   77.5  30.073  0.00  0.00    90     3.87    153     0.0  0.00   0.0   0.000   0.308   84.5    39   56.8   84.5   0.008   669    2    100.0   30 
 8/18/17  7:30p   78.7   79.8   78.7    47   56.8   2.0    NW   1.00   7.0    NW   78.7   78.6   78.6   75.2  30.081  0.00  0.00    19     0.82     28     0.0  0.00   0.0   0.000   0.285   84.3    39   56.6   84.3   0.000   685    2    100.0   30 
 8/18/17  8:00p   76.4   78.7   76.4    54   58.5   4.0     W   2.00  12.0     W   76.4   76.6   76.6   72.9  30.090  0.00  0.00     1     0.04      7     0.0  0.00   0.0   0.000   0.238   84.1    41   57.9   84.5   0.002   679    2    100.0   30 
 8/18/17  8:30p   75.5   76.3   75.5    54   57.7   5.0     W   2.50  12.0     W   75.5   75.8   75.8   72.0  30.101  0.00  0.00     0     0.00      0     0.0  0.00   0.0   0.000   0.219   83.5    41   57.3   83.7   0.000   676    2    100.0   30 
 8/18/17  9:00p   74.6   75.5   74.6    55   57.4   2.0     W   1.00   7.0     W   74.6   75.0   75.0   71.2  30.106  0.00  0.00     0     0.00      0     0.0  0.00   0.0   0.000   0.200   83.3    41   57.1   83.3   0.003   684    2    100.0   30 
 8/18/17  9:30p   74.0   74.7   74.0    55   56.8   0.0     W   0.00   5.0     W   74.0   74.2   74.2   70.4  30.115  0.00  0.00     0     0.00      0     0.0  0.00   0.0   0.000   0.188   83.1    41   57.0   83.0   0.000   676    2    100.0   30 
 8/18/17 10:00p   72.4   74.2   72.4    58   56.8   0.0     W   0.00   3.0     W   72.4   72.3   72.3   68.5  30.108  0.00  0.00     0     0.00      0     0.0  0.00   0.0   0.000   0.154   82.9    41   56.8   82.7   0.002   678    2    100.0   30